sensor_id;sensor_type;location;lat;lon;timestamp;temperature;humidity
12053;DHT22;6087;48.982;12.064;2023-09-07T00:00:39;19.60;6.10
12053;DHT22;6087;48.982;12.064;2023-09-07T00:03:06;19.60;6.30
12053;DHT22;6087;48.982;12.064;2023-09-07T00:05:33;19.60;6.40
12053;DHT22;6087;48.982;12.064;2023-09-07T00:08:04;19.50;6.10
12053;DHT22;6087;48.982;12.064;2023-09-07T00:10:32;19.50;6.40
12053;DHT22;6087;48.982;12.064;2023-09-07T00:13:00;19.50;6.30
12053;DHT22;6087;48.982;12.064;2023-09-07T00:15:27;19.50;6.60
12053;DHT22;6087;48.982;12.064;2023-09-07T00:17:55;19.50;6.80
12053;DHT22;6087;48.982;12.064;2023-09-07T00:20:25;19.50;7.10
12053;DHT22;6087;48.982;12.064;2023-09-07T00:22:51;19.50;7.20
12053;DHT22;6087;48.982;12.064;2023-09-07T00:25:20;19.50;7.20
12053;DHT22;6087;48.982;12.064;2023-09-07T00:27:47;19.40;7.30
12053;DHT22;6087;48.982;12.064;2023-09-07T00:30:14;19.40;7.00
12053;DHT22;6087;48.982;12.064;2023-09-07T00:32:41;19.40;7.30
12053;DHT22;6087;48.982;12.064;2023-09-07T00:35:08;19.40;7.20
12053;DHT22;6087;48.982;12.064;2023-09-07T00:37:36;19.40;7.40
12053;DHT22;6087;48.982;12.064;2023-09-07T00:40:04;19.40;7.30
12053;DHT22;6087;48.982;12.064;2023-09-07T00:42:35;19.40;7.40
12053;DHT22;6087;48.982;12.064;2023-09-07T00:45:03;19.40;7.50
12053;DHT22;6087;48.982;12.064;2023-09-07T00:47:31;19.40;7.60
12053;DHT22;6087;48.982;12.064;2023-09-07T00:50:00;19.30;7.90
12053;DHT22;6087;48.982;12.064;2023-09-07T00:52:27;19.30;8.10
12053;DHT22;6087;48.982;12.064;2023-09-07T00:54:54;19.30;8.30
12053;DHT22;6087;48.982;12.064;2023-09-07T00:57:21;19.30;8.40
12053;DHT22;6087;48.982;12.064;2023-09-07T00:59:49;19.20;8.70
12053;DHT22;6087;48.982;12.064;2023-09-07T01:02:16;19.20;8.70
12053;DHT22;6087;48.982;12.064;2023-09-07T01:04:43;19.20;8.90
12053;DHT22;6087;48.982;12.064;2023-09-07T01:07:15;19.20;9.20
12053;DHT22;6087;48.982;12.064;2023-09-07T01:09:44;19.20;9.20
12053;DHT22;6087;48.982;12.064;2023-09-07T01:12:14;19.20;9.40
12053;DHT22;6087;48.982;12.064;2023-09-07T01:14:41;19.10;9.50
12053;DHT22;6087;48.982;12.064;2023-09-07T01:17:10;19.10;9.70
12053;DHT22;6087;48.982;12.064;2023-09-07T01:19:39;19.10;9.70
12053;DHT22;6087;48.982;12.064;2023-09-07T01:22:08;19.10;10.00
12053;DHT22;6087;48.982;12.064;2023-09-07T01:24:37;19.10;9.60
12053;DHT22;6087;48.982;12.064;2023-09-07T01:27:05;19.00;9.70
12053;DHT22;6087;48.982;12.064;2023-09-07T01:29:32;19.00;10.00
12053;DHT22;6087;48.982;12.064;2023-09-07T01:31:59;19.00;9.60
12053;DHT22;6087;48.982;12.064;2023-09-07T01:34:26;19.00;9.60
12053;DHT22;6087;48.982;12.064;2023-09-07T01:36:53;19.00;10.00
12053;DHT22;6087;48.982;12.064;2023-09-07T01:39:29;18.90;10.30
12053;DHT22;6087;48.982;12.064;2023-09-07T01:41:55;18.90;9.90
12053;DHT22;6087;48.982;12.064;2023-09-07T01:44:22;18.90;10.50
12053;DHT22;6087;48.982;12.064;2023-09-07T01:46:51;18.80;9.80
12053;DHT22;6087;48.982;12.064;2023-09-07T01:49:18;18.90;10.00
12053;DHT22;6087;48.982;12.064;2023-09-07T01:51:45;18.90;10.10
12053;DHT22;6087;48.982;12.064;2023-09-07T01:54:12;18.80;10.30
12053;DHT22;6087;48.982;12.064;2023-09-07T01:56:40;18.80;10.40
12053;DHT22;6087;48.982;12.064;2023-09-07T01:59:07;18.80;10.30
12053;DHT22;6087;48.982;12.064;2023-09-07T02:01:34;18.80;10.80
12053;DHT22;6087;48.982;12.064;2023-09-07T02:04:03;18.70;10.70
12053;DHT22;6087;48.982;12.064;2023-09-07T02:06:30;18.70;10.60
12053;DHT22;6087;48.982;12.064;2023-09-07T02:08:57;18.60;10.70
12053;DHT22;6087;48.982;12.064;2023-09-07T02:11:24;18.60;10.90
12053;DHT22;6087;48.982;12.064;2023-09-07T02:13:52;18.60;11.20
12053;DHT22;6087;48.982;12.064;2023-09-07T02:16:19;18.60;11.20
12053;DHT22;6087;48.982;12.064;2023-09-07T02:18:49;18.50;11.30
12053;DHT22;6087;48.982;12.064;2023-09-07T02:21:16;18.50;11.50
12053;DHT22;6087;48.982;12.064;2023-09-07T02:23:43;18.50;11.70
12053;DHT22;6087;48.982;12.064;2023-09-07T02:26:10;18.40;12.40
12053;DHT22;6087;48.982;12.064;2023-09-07T02:28:37;18.40;11.90
12053;DHT22;6087;48.982;12.064;2023-09-07T02:31:06;18.40;12.00
12053;DHT22;6087;48.982;12.064;2023-09-07T02:33:33;18.40;12.20
12053;DHT22;6087;48.982;12.064;2023-09-07T02:36:01;18.30;12.20
12053;DHT22;6087;48.982;12.064;2023-09-07T02:38:28;18.40;12.30
12053;DHT22;6087;48.982;12.064;2023-09-07T02:40:56;18.30;12.60
12053;DHT22;6087;48.982;12.064;2023-09-07T02:43:23;18.30;12.60
12053;DHT22;6087;48.982;12.064;2023-09-07T02:45:50;18.20;12.90
12053;DHT22;6087;48.982;12.064;2023-09-07T02:48:19;18.20;12.90
12053;DHT22;6087;48.982;12.064;2023-09-07T02:50:48;18.20;13.00
12053;DHT22;6087;48.982;12.064;2023-09-07T02:53:16;18.20;12.90
12053;DHT22;6087;48.982;12.064;2023-09-07T02:55:43;18.20;13.00
12053;DHT22;6087;48.982;12.064;2023-09-07T02:58:10;18.20;13.10
12053;DHT22;6087;48.982;12.064;2023-09-07T03:00:41;18.20;13.00
12053;DHT22;6087;48.982;12.064;2023-09-07T03:03:10;18.10;12.90
12053;DHT22;6087;48.982;12.064;2023-09-07T03:05:39;18.10;13.00
12053;DHT22;6087;48.982;12.064;2023-09-07T03:08:05;18.10;13.00
12053;DHT22;6087;48.982;12.064;2023-09-07T03:10:34;18.10;13.00
12053;DHT22;6087;48.982;12.064;2023-09-07T03:13:01;18.10;12.90
12053;DHT22;6087;48.982;12.064;2023-09-07T03:15:29;18.10;13.20
12053;DHT22;6087;48.982;12.064;2023-09-07T03:17:56;18.10;13.20
12053;DHT22;6087;48.982;12.064;2023-09-07T03:20:23;18.10;13.50
12053;DHT22;6087;48.982;12.064;2023-09-07T03:22:54;18.00;13.70
12053;DHT22;6087;48.982;12.064;2023-09-07T03:25:21;18.00;13.70
12053;DHT22;6087;48.982;12.064;2023-09-07T03:27:51;18.00;14.00
12053;DHT22;6087;48.982;12.064;2023-09-07T03:30:18;18.00;13.30
12053;DHT22;6087;48.982;12.064;2023-09-07T03:32:51;18.00;13.50
12053;DHT22;6087;48.982;12.064;2023-09-07T03:35:18;18.00;14.30
12053;DHT22;6087;48.982;12.064;2023-09-07T03:37:45;17.90;13.80
12053;DHT22;6087;48.982;12.064;2023-09-07T03:40:14;17.90;13.90
12053;DHT22;6087;48.982;12.064;2023-09-07T03:42:41;17.90;14.20
12053;DHT22;6087;48.982;12.064;2023-09-07T03:45:09;17.90;14.80
12053;DHT22;6087;48.982;12.064;2023-09-07T03:47:37;17.90;14.40
12053;DHT22;6087;48.982;12.064;2023-09-07T03:50:04;17.80;14.70
12053;DHT22;6087;48.982;12.064;2023-09-07T03:52:31;17.80;14.60
12053;DHT22;6087;48.982;12.064;2023-09-07T03:55:00;17.80;14.30
12053;DHT22;6087;48.982;12.064;2023-09-07T03:57:29;17.80;14.40
12053;DHT22;6087;48.982;12.064;2023-09-07T03:59:56;17.80;14.60
12053;DHT22;6087;48.982;12.064;2023-09-07T04:02:23;17.80;14.50
12053;DHT22;6087;48.982;12.064;2023-09-07T04:04:51;17.70;14.50
12053;DHT22;6087;48.982;12.064;2023-09-07T04:07:18;17.70;14.50
12053;DHT22;6087;48.982;12.064;2023-09-07T04:09:46;17.70;14.40
12053;DHT22;6087;48.982;12.064;2023-09-07T04:12:13;17.70;14.30
12053;DHT22;6087;48.982;12.064;2023-09-07T04:14:41;17.60;14.70
12053;DHT22;6087;48.982;12.064;2023-09-07T04:17:08;17.60;14.80
12053;DHT22;6087;48.982;12.064;2023-09-07T04:19:35;17.60;14.80
12053;DHT22;6087;48.982;12.064;2023-09-07T04:22:05;17.60;14.80
12053;DHT22;6087;48.982;12.064;2023-09-07T04:24:32;17.60;14.80
12053;DHT22;6087;48.982;12.064;2023-09-07T04:26:59;17.60;15.10
12053;DHT22;6087;48.982;12.064;2023-09-07T04:29:26;17.60;15.10
12053;DHT22;6087;48.982;12.064;2023-09-07T04:31:54;17.50;15.40
12053;DHT22;6087;48.982;12.064;2023-09-07T04:34:21;17.50;15.60
12053;DHT22;6087;48.982;12.064;2023-09-07T04:36:48;17.40;15.70
12053;DHT22;6087;48.982;12.064;2023-09-07T04:39:15;17.40;15.90
12053;DHT22;6087;48.982;12.064;2023-09-07T04:41:43;17.40;16.10
12053;DHT22;6087;48.982;12.064;2023-09-07T04:44:17;17.40;16.20
12053;DHT22;6087;48.982;12.064;2023-09-07T04:46:44;17.40;16.30
12053;DHT22;6087;48.982;12.064;2023-09-07T04:49:12;17.40;16.50
12053;DHT22;6087;48.982;12.064;2023-09-07T04:51:39;17.30;16.40
12053;DHT22;6087;48.982;12.064;2023-09-07T04:54:06;17.30;16.70
12053;DHT22;6087;48.982;12.064;2023-09-07T04:56:33;17.30;17.10
12053;DHT22;6087;48.982;12.064;2023-09-07T04:59:00;17.30;17.00
12053;DHT22;6087;48.982;12.064;2023-09-07T05:01:30;17.30;17.30
12053;DHT22;6087;48.982;12.064;2023-09-07T05:03:57;17.30;17.20
12053;DHT22;6087;48.982;12.064;2023-09-07T05:06:26;17.30;17.40
12053;DHT22;6087;48.982;12.064;2023-09-07T05:08:53;17.20;17.50
12053;DHT22;6087;48.982;12.064;2023-09-07T05:11:22;17.20;17.50
12053;DHT22;6087;48.982;12.064;2023-09-07T05:13:49;17.20;17.90
12053;DHT22;6087;48.982;12.064;2023-09-07T05:16:16;17.20;18.10
12053;DHT22;6087;48.982;12.064;2023-09-07T05:18:43;17.20;18.20
12053;DHT22;6087;48.982;12.064;2023-09-07T05:21:13;17.20;18.30
12053;DHT22;6087;48.982;12.064;2023-09-07T05:23:41;17.10;18.40
12053;DHT22;6087;48.982;12.064;2023-09-07T05:26:08;17.20;19.00
12053;DHT22;6087;48.982;12.064;2023-09-07T05:28:35;17.10;18.70
12053;DHT22;6087;48.982;12.064;2023-09-07T05:31:02;17.20;18.80
12053;DHT22;6087;48.982;12.064;2023-09-07T05:33:29;17.10;18.90
12053;DHT22;6087;48.982;12.064;2023-09-07T05:35:56;17.10;19.30
12053;DHT22;6087;48.982;12.064;2023-09-07T05:38:23;17.10;19.80
12053;DHT22;6087;48.982;12.064;2023-09-07T05:40:52;17.10;19.80
12053;DHT22;6087;48.982;12.064;2023-09-07T05:43:19;17.10;20.10
12053;DHT22;6087;48.982;12.064;2023-09-07T05:45:46;17.10;20.10
12053;DHT22;6087;48.982;12.064;2023-09-07T05:48:14;17.10;20.50
12053;DHT22;6087;48.982;12.064;2023-09-07T05:50:43;17.10;20.90
12053;DHT22;6087;48.982;12.064;2023-09-07T05:53:10;17.10;21.30
12053;DHT22;6087;48.982;12.064;2023-09-07T05:55:38;17.10;21.50
12053;DHT22;6087;48.982;12.064;2023-09-07T05:58:08;17.10;22.10
12053;DHT22;6087;48.982;12.064;2023-09-07T06:00:36;17.20;22.30
12053;DHT22;6087;48.982;12.064;2023-09-07T06:03:04;17.20;22.60
12053;DHT22;6087;48.982;12.064;2023-09-07T06:05:33;17.20;23.10
12053;DHT22;6087;48.982;12.064;2023-09-07T06:08:00;17.20;23.20
12053;DHT22;6087;48.982;12.064;2023-09-07T06:10:28;17.20;23.40
12053;DHT22;6087;48.982;12.064;2023-09-07T06:12:55;17.20;23.80
12053;DHT22;6087;48.982;12.064;2023-09-07T06:15:25;17.30;23.80
12053;DHT22;6087;48.982;12.064;2023-09-07T06:17:52;17.30;24.50
12053;DHT22;6087;48.982;12.064;2023-09-07T06:20:19;17.40;25.00
12053;DHT22;6087;48.982;12.064;2023-09-07T06:22:46;17.40;24.70
12053;DHT22;6087;48.982;12.064;2023-09-07T06:25:17;17.40;24.70
12053;DHT22;6087;48.982;12.064;2023-09-07T06:27:45;17.40;25.30
12053;DHT22;6087;48.982;12.064;2023-09-07T06:30:12;17.50;25.60
12053;DHT22;6087;48.982;12.064;2023-09-07T06:32:46;17.50;26.00
12053;DHT22;6087;48.982;12.064;2023-09-07T06:35:14;17.60;26.50
12053;DHT22;6087;48.982;12.064;2023-09-07T06:37:41;17.60;26.10
12053;DHT22;6087;48.982;12.064;2023-09-07T06:40:09;17.60;26.70
12053;DHT22;6087;48.982;12.064;2023-09-07T06:42:42;17.70;27.80
12053;DHT22;6087;48.982;12.064;2023-09-07T06:45:09;17.70;26.80
12053;DHT22;6087;48.982;12.064;2023-09-07T06:47:37;17.70;26.10
12053;DHT22;6087;48.982;12.064;2023-09-07T06:50:07;17.80;26.60
12053;DHT22;6087;48.982;12.064;2023-09-07T06:52:36;17.80;25.80
12053;DHT22;6087;48.982;12.064;2023-09-07T06:55:07;17.90;26.20
12053;DHT22;6087;48.982;12.064;2023-09-07T06:57:34;17.90;26.40
12053;DHT22;6087;48.982;12.064;2023-09-07T07:00:04;18.00;25.40
12053;DHT22;6087;48.982;12.064;2023-09-07T07:02:34;18.00;25.50
12053;DHT22;6087;48.982;12.064;2023-09-07T07:05:01;18.10;26.00
12053;DHT22;6087;48.982;12.064;2023-09-07T07:07:30;18.10;25.20
12053;DHT22;6087;48.982;12.064;2023-09-07T07:09:57;18.10;25.60
12053;DHT22;6087;48.982;12.064;2023-09-07T07:12:24;18.20;25.40
12053;DHT22;6087;48.982;12.064;2023-09-07T07:14:51;18.20;26.40
12053;DHT22;6087;48.982;12.064;2023-09-07T07:17:28;18.30;26.60
12053;DHT22;6087;48.982;12.064;2023-09-07T07:19:54;18.30;26.70
12053;DHT22;6087;48.982;12.064;2023-09-07T07:22:21;18.40;26.80
12053;DHT22;6087;48.982;12.064;2023-09-07T07:24:50;18.40;27.20
12053;DHT22;6087;48.982;12.064;2023-09-07T07:27:17;18.40;26.60
12053;DHT22;6087;48.982;12.064;2023-09-07T07:29:44;18.50;26.70
12053;DHT22;6087;48.982;12.064;2023-09-07T07:32:11;18.50;26.40
12053;DHT22;6087;48.982;12.064;2023-09-07T07:34:44;18.60;26.30
12053;DHT22;6087;48.982;12.064;2023-09-07T07:37:11;18.60;25.50
12053;DHT22;6087;48.982;12.064;2023-09-07T07:39:38;18.60;25.50
12053;DHT22;6087;48.982;12.064;2023-09-07T07:42:07;18.70;26.20
12053;DHT22;6087;48.982;12.064;2023-09-07T07:44:42;18.70;26.40
12053;DHT22;6087;48.982;12.064;2023-09-07T07:47:09;18.70;26.40
12053;DHT22;6087;48.982;12.064;2023-09-07T07:49:36;18.80;26.70
12053;DHT22;6087;48.982;12.064;2023-09-07T07:52:03;18.90;26.00
12053;DHT22;6087;48.982;12.064;2023-09-07T07:54:33;18.90;25.00
12053;DHT22;6087;48.982;12.064;2023-09-07T07:57:04;19.00;24.10
12053;DHT22;6087;48.982;12.064;2023-09-07T07:59:40;19.00;25.10
12053;DHT22;6087;48.982;12.064;2023-09-07T08:02:07;19.00;22.80
12053;DHT22;6087;48.982;12.064;2023-09-07T08:04:34;19.10;21.50
12053;DHT22;6087;48.982;12.064;2023-09-07T08:07:04;19.10;21.10
12053;DHT22;6087;48.982;12.064;2023-09-07T08:09:33;19.20;20.60
12053;DHT22;6087;48.982;12.064;2023-09-07T08:12:01;19.20;21.00
12053;DHT22;6087;48.982;12.064;2023-09-07T08:14:36;19.20;19.50
12053;DHT22;6087;48.982;12.064;2023-09-07T08:17:03;19.30;19.50
12053;DHT22;6087;48.982;12.064;2023-09-07T08:19:42;19.30;19.40
12053;DHT22;6087;48.982;12.064;2023-09-07T08:22:09;19.30;18.50
12053;DHT22;6087;48.982;12.064;2023-09-07T08:24:38;19.30;18.10
12053;DHT22;6087;48.982;12.064;2023-09-07T08:27:06;19.40;18.40
12053;DHT22;6087;48.982;12.064;2023-09-07T08:29:38;19.40;18.10
12053;DHT22;6087;48.982;12.064;2023-09-07T08:32:05;19.40;15.70
12053;DHT22;6087;48.982;12.064;2023-09-07T08:34:33;19.50;16.10
12053;DHT22;6087;48.982;12.064;2023-09-07T08:37:05;19.50;13.00
12053;DHT22;6087;48.982;12.064;2023-09-07T08:39:34;19.50;13.80
12053;DHT22;6087;48.982;12.064;2023-09-07T08:42:07;19.50;13.40
12053;DHT22;6087;48.982;12.064;2023-09-07T08:44:38;19.50;11.10
12053;DHT22;6087;48.982;12.064;2023-09-07T08:47:06;19.60;9.50
12053;DHT22;6087;48.982;12.064;2023-09-07T08:49:33;19.60;7.40
12053;DHT22;6087;48.982;12.064;2023-09-07T08:52:02;19.60;8.10
12053;DHT22;6087;48.982;12.064;2023-09-07T08:54:30;19.70;9.00
12053;DHT22;6087;48.982;12.064;2023-09-07T08:57:02;19.70;8.50
12053;DHT22;6087;48.982;12.064;2023-09-07T08:59:30;19.70;7.10
12053;DHT22;6087;48.982;12.064;2023-09-07T09:01:58;19.80;6.90
12053;DHT22;6087;48.982;12.064;2023-09-07T09:04:26;19.80;7.90
12053;DHT22;6087;48.982;12.064;2023-09-07T09:06:53;19.80;7.50
12053;DHT22;6087;48.982;12.064;2023-09-07T09:09:23;19.90;7.50
12053;DHT22;6087;48.982;12.064;2023-09-07T09:11:51;19.90;8.60
12053;DHT22;6087;48.982;12.064;2023-09-07T09:14:18;20.00;8.50
12053;DHT22;6087;48.982;12.064;2023-09-07T09:16:48;20.00;8.00
12053;DHT22;6087;48.982;12.064;2023-09-07T09:19:18;20.00;7.80
12053;DHT22;6087;48.982;12.064;2023-09-07T09:21:45;20.00;6.20
12053;DHT22;6087;48.982;12.064;2023-09-07T09:24:12;20.00;4.40
12053;DHT22;6087;48.982;12.064;2023-09-07T09:26:40;20.00;1.90
12053;DHT22;6087;48.982;12.064;2023-09-07T09:29:09;20.10;3.00
12053;DHT22;6087;48.982;12.064;2023-09-07T09:31:36;20.10;3.60
12053;DHT22;6087;48.982;12.064;2023-09-07T09:34:09;20.20;1.00
12053;DHT22;6087;48.982;12.064;2023-09-07T09:36:41;20.20;1.00
12053;DHT22;6087;48.982;12.064;2023-09-07T09:39:23;20.20;1.00
12053;DHT22;6087;48.982;12.064;2023-09-07T09:41:51;20.30;1.00
12053;DHT22;6087;48.982;12.064;2023-09-07T09:44:21;20.30;1.00
12053;DHT22;6087;48.982;12.064;2023-09-07T09:46:51;20.30;1.00
12053;DHT22;6087;48.982;12.064;2023-09-07T09:49:20;20.40;1.00
12053;DHT22;6087;48.982;12.064;2023-09-07T09:51:49;20.40;1.00
12053;DHT22;6087;48.982;12.064;2023-09-07T09:54:17;20.40;1.00
12053;DHT22;6087;48.982;12.064;2023-09-07T09:56:44;20.50;1.00
12053;DHT22;6087;48.982;12.064;2023-09-07T09:59:12;20.50;1.00
12053;DHT22;6087;48.982;12.064;2023-09-07T10:01:42;20.50;1.00
12053;DHT22;6087;48.982;12.064;2023-09-07T10:04:11;20.60;1.00
12053;DHT22;6087;48.982;12.064;2023-09-07T10:06:38;20.60;1.00
12053;DHT22;6087;48.982;12.064;2023-09-07T10:09:11;20.60;1.00
12053;DHT22;6087;48.982;12.064;2023-09-07T10:11:42;20.70;1.00
12053;DHT22;6087;48.982;12.064;2023-09-07T10:14:09;20.70;1.00
12053;DHT22;6087;48.982;12.064;2023-09-07T10:16:45;20.70;1.00
12053;DHT22;6087;48.982;12.064;2023-09-07T10:19:20;20.70;1.00
12053;DHT22;6087;48.982;12.064;2023-09-07T10:21:47;20.80;1.00
12053;DHT22;6087;48.982;12.064;2023-09-07T10:24:26;20.80;1.00
12053;DHT22;6087;48.982;12.064;2023-09-07T10:26:57;20.80;1.00
12053;DHT22;6087;48.982;12.064;2023-09-07T10:29:27;20.90;1.00
12053;DHT22;6087;48.982;12.064;2023-09-07T10:31:54;20.90;1.00
12053;DHT22;6087;48.982;12.064;2023-09-07T10:34:22;20.90;1.00
12053;DHT22;6087;48.982;12.064;2023-09-07T10:37:00;21.00;1.00
12053;DHT22;6087;48.982;12.064;2023-09-07T10:39:31;21.00;1.00
12053;DHT22;6087;48.982;12.064;2023-09-07T10:41:58;21.00;1.00
12053;DHT22;6087;48.982;12.064;2023-09-07T10:44:25;21.10;1.00
12053;DHT22;6087;48.982;12.064;2023-09-07T10:46:52;21.10;1.00
12053;DHT22;6087;48.982;12.064;2023-09-07T10:49:19;21.20;1.00
12053;DHT22;6087;48.982;12.064;2023-09-07T10:51:46;21.20;1.00
12053;DHT22;6087;48.982;12.064;2023-09-07T10:54:14;21.30;1.00
12053;DHT22;6087;48.982;12.064;2023-09-07T10:56:45;21.40;1.00
12053;DHT22;6087;48.982;12.064;2023-09-07T10:59:13;21.40;1.00
12053;DHT22;6087;48.982;12.064;2023-09-07T11:01:40;21.40;1.00
12053;DHT22;6087;48.982;12.064;2023-09-07T11:04:07;21.50;1.00
12053;DHT22;6087;48.982;12.064;2023-09-07T11:06:37;21.50;1.00
12053;DHT22;6087;48.982;12.064;2023-09-07T11:09:04;21.60;1.00
12053;DHT22;6087;48.982;12.064;2023-09-07T11:11:34;21.60;1.00
12053;DHT22;6087;48.982;12.064;2023-09-07T11:14:03;21.70;1.00
12053;DHT22;6087;48.982;12.064;2023-09-07T11:16:32;21.80;1.00
12053;DHT22;6087;48.982;12.064;2023-09-07T11:19:02;21.80;1.00
12053;DHT22;6087;48.982;12.064;2023-09-07T11:21:30;21.90;1.00
12053;DHT22;6087;48.982;12.064;2023-09-07T11:23:58;22.00;1.00
12053;DHT22;6087;48.982;12.064;2023-09-07T11:26:25;22.10;1.00
12053;DHT22;6087;48.982;12.064;2023-09-07T11:28:56;22.20;1.00
12053;DHT22;6087;48.982;12.064;2023-09-07T11:31:25;22.20;1.00
12053;DHT22;6087;48.982;12.064;2023-09-07T11:33:53;22.30;1.00
12053;DHT22;6087;48.982;12.064;2023-09-07T11:36:25;22.40;1.00
12053;DHT22;6087;48.982;12.064;2023-09-07T11:38:51;22.50;1.00
12053;DHT22;6087;48.982;12.064;2023-09-07T11:41:17;22.50;1.00
12053;DHT22;6087;48.982;12.064;2023-09-07T11:43:44;22.60;1.00
12053;DHT22;6087;48.982;12.064;2023-09-07T11:46:11;22.70;1.00
12053;DHT22;6087;48.982;12.064;2023-09-07T11:48:39;22.80;1.00
12053;DHT22;6087;48.982;12.064;2023-09-07T11:51:06;22.80;1.00
12053;DHT22;6087;48.982;12.064;2023-09-07T11:53:34;22.90;1.00
12053;DHT22;6087;48.982;12.064;2023-09-07T11:56:01;22.90;1.00
12053;DHT22;6087;48.982;12.064;2023-09-07T11:58:28;23.00;1.00
12053;DHT22;6087;48.982;12.064;2023-09-07T12:00:55;23.10;1.00
12053;DHT22;6087;48.982;12.064;2023-09-07T12:03:22;23.20;1.00
12053;DHT22;6087;48.982;12.064;2023-09-07T12:05:50;23.30;1.00
12053;DHT22;6087;48.982;12.064;2023-09-07T12:08:20;23.40;1.00
12053;DHT22;6087;48.982;12.064;2023-09-07T12:10:50;23.50;1.00
12053;DHT22;6087;48.982;12.064;2023-09-07T12:13:16;23.60;1.00
12053;DHT22;6087;48.982;12.064;2023-09-07T12:15:43;23.70;1.00
12053;DHT22;6087;48.982;12.064;2023-09-07T12:18:10;23.70;1.00
12053;DHT22;6087;48.982;12.064;2023-09-07T12:20:37;23.80;1.00
12053;DHT22;6087;48.982;12.064;2023-09-07T12:23:05;23.90;1.00
12053;DHT22;6087;48.982;12.064;2023-09-07T12:25:33;24.00;1.00
12053;DHT22;6087;48.982;12.064;2023-09-07T12:28:00;24.10;1.00
12053;DHT22;6087;48.982;12.064;2023-09-07T12:30:27;24.20;1.00
12053;DHT22;6087;48.982;12.064;2023-09-07T12:32:54;24.40;1.00
12053;DHT22;6087;48.982;12.064;2023-09-07T12:35:21;24.60;1.00
12053;DHT22;6087;48.982;12.064;2023-09-07T12:37:49;24.70;1.00
12053;DHT22;6087;48.982;12.064;2023-09-07T12:40:18;24.80;1.00
12053;DHT22;6087;48.982;12.064;2023-09-07T12:42:45;25.00;1.00
12053;DHT22;6087;48.982;12.064;2023-09-07T12:45:12;25.10;1.00
12053;DHT22;6087;48.982;12.064;2023-09-07T12:47:40;25.20;1.00
12053;DHT22;6087;48.982;12.064;2023-09-07T12:50:07;25.20;1.00
12053;DHT22;6087;48.982;12.064;2023-09-07T12:52:34;25.40;1.00
12053;DHT22;6087;48.982;12.064;2023-09-07T12:55:03;25.50;1.00
12053;DHT22;6087;48.982;12.064;2023-09-07T12:57:32;25.60;1.00
12053;DHT22;6087;48.982;12.064;2023-09-07T12:59:59;25.70;1.00
12053;DHT22;6087;48.982;12.064;2023-09-07T13:02:26;25.80;1.00
12053;DHT22;6087;48.982;12.064;2023-09-07T13:04:54;25.90;1.00
12053;DHT22;6087;48.982;12.064;2023-09-07T13:07:21;26.00;1.00
12053;DHT22;6087;48.982;12.064;2023-09-07T13:09:50;26.10;1.00
12053;DHT22;6087;48.982;12.064;2023-09-07T13:12:16;26.20;1.00
12053;DHT22;6087;48.982;12.064;2023-09-07T13:14:47;26.30;1.00
12053;DHT22;6087;48.982;12.064;2023-09-07T13:17:15;26.40;1.00
12053;DHT22;6087;48.982;12.064;2023-09-07T13:19:51;26.50;1.00
12053;DHT22;6087;48.982;12.064;2023-09-07T13:22:18;26.60;1.00
12053;DHT22;6087;48.982;12.064;2023-09-07T13:24:44;26.70;1.00
12053;DHT22;6087;48.982;12.064;2023-09-07T13:27:11;26.70;1.00
12053;DHT22;6087;48.982;12.064;2023-09-07T13:29:38;26.80;1.00
12053;DHT22;6087;48.982;12.064;2023-09-07T13:32:07;26.90;1.00
12053;DHT22;6087;48.982;12.064;2023-09-07T13:34:33;26.90;1.00
12053;DHT22;6087;48.982;12.064;2023-09-07T13:37:03;27.00;1.00
12053;DHT22;6087;48.982;12.064;2023-09-07T13:39:30;27.00;1.00
12053;DHT22;6087;48.982;12.064;2023-09-07T13:41:57;27.00;1.00
12053;DHT22;6087;48.982;12.064;2023-09-07T13:44:24;27.00;1.00
12053;DHT22;6087;48.982;12.064;2023-09-07T13:46:51;27.00;1.00
12053;DHT22;6087;48.982;12.064;2023-09-07T13:49:20;27.10;1.00
12053;DHT22;6087;48.982;12.064;2023-09-07T13:51:47;27.10;1.00
12053;DHT22;6087;48.982;12.064;2023-09-07T13:54:14;27.10;1.00
12053;DHT22;6087;48.982;12.064;2023-09-07T13:56:41;27.10;1.00
12053;DHT22;6087;48.982;12.064;2023-09-07T13:59:10;27.10;1.00
12053;DHT22;6087;48.982;12.064;2023-09-07T14:01:37;27.10;1.00
12053;DHT22;6087;48.982;12.064;2023-09-07T14:04:05;27.10;1.00
12053;DHT22;6087;48.982;12.064;2023-09-07T14:06:41;27.10;1.00
12053;DHT22;6087;48.982;12.064;2023-09-07T14:09:08;27.10;1.00
12053;DHT22;6087;48.982;12.064;2023-09-07T14:11:35;27.10;1.00
12053;DHT22;6087;48.982;12.064;2023-09-07T14:14:03;27.10;1.00
12053;DHT22;6087;48.982;12.064;2023-09-07T14:16:30;27.10;1.00
12053;DHT22;6087;48.982;12.064;2023-09-07T14:18:57;27.10;1.00
12053;DHT22;6087;48.982;12.064;2023-09-07T14:21:23;27.00;1.00
12053;DHT22;6087;48.982;12.064;2023-09-07T14:23:57;27.00;1.00
12053;DHT22;6087;48.982;12.064;2023-09-07T14:26:27;27.10;1.00
12053;DHT22;6087;48.982;12.064;2023-09-07T14:28:57;27.10;1.00
12053;DHT22;6087;48.982;12.064;2023-09-07T14:31:24;27.00;1.00
12053;DHT22;6087;48.982;12.064;2023-09-07T14:33:51;27.00;1.00
12053;DHT22;6087;48.982;12.064;2023-09-07T14:36:18;27.00;1.00
12053;DHT22;6087;48.982;12.064;2023-09-07T14:38:45;27.00;1.00
12053;DHT22;6087;48.982;12.064;2023-09-07T14:41:13;27.00;1.00
12053;DHT22;6087;48.982;12.064;2023-09-07T14:43:44;27.00;1.00
12053;DHT22;6087;48.982;12.064;2023-09-07T14:46:12;26.90;1.00
12053;DHT22;6087;48.982;12.064;2023-09-07T14:48:38;26.90;1.00
12053;DHT22;6087;48.982;12.064;2023-09-07T14:51:05;26.90;1.00
12053;DHT22;6087;48.982;12.064;2023-09-07T14:53:32;26.90;1.00
12053;DHT22;6087;48.982;12.064;2023-09-07T14:55:59;26.90;1.00
12053;DHT22;6087;48.982;12.064;2023-09-07T14:58:28;26.90;1.00
12053;DHT22;6087;48.982;12.064;2023-09-07T15:00:57;26.90;1.00
12053;DHT22;6087;48.982;12.064;2023-09-07T15:03:30;26.80;1.00
12053;DHT22;6087;48.982;12.064;2023-09-07T15:05:57;26.80;1.00
12053;DHT22;6087;48.982;12.064;2023-09-07T15:08:30;26.70;1.00
12053;DHT22;6087;48.982;12.064;2023-09-07T15:11:06;26.70;1.00
12053;DHT22;6087;48.982;12.064;2023-09-07T15:13:35;26.70;1.00
12053;DHT22;6087;48.982;12.064;2023-09-07T15:16:05;26.60;1.00
12053;DHT22;6087;48.982;12.064;2023-09-07T15:18:33;26.70;1.00
12053;DHT22;6087;48.982;12.064;2023-09-07T15:21:00;26.60;1.00
12053;DHT22;6087;48.982;12.064;2023-09-07T15:23:27;26.60;1.00
12053;DHT22;6087;48.982;12.064;2023-09-07T15:25:54;26.50;1.00
12053;DHT22;6087;48.982;12.064;2023-09-07T15:28:22;26.50;1.00
12053;DHT22;6087;48.982;12.064;2023-09-07T15:30:50;26.50;1.00
12053;DHT22;6087;48.982;12.064;2023-09-07T15:33:17;26.40;1.00
12053;DHT22;6087;48.982;12.064;2023-09-07T15:35:44;26.40;1.00
12053;DHT22;6087;48.982;12.064;2023-09-07T15:38:11;26.40;1.00
12053;DHT22;6087;48.982;12.064;2023-09-07T15:40:38;26.30;1.00
12053;DHT22;6087;48.982;12.064;2023-09-07T15:43:05;26.20;1.00
12053;DHT22;6087;48.982;12.064;2023-09-07T15:45:37;26.20;1.00